createdAt,value
2022-11-01T00:04:11.347Z,22.35
2022-11-01T00:09:12.909Z,23.77
2022-11-01T00:14:19.797Z,24.58
2022-11-01T00:24:23.054Z,28.17
2022-11-01T00:29:24.668Z,30.58
2022-11-01T00:34:26.272Z,29.83
2022-11-01T00:39:31.358Z,32.22
2022-11-01T00:44:33.090Z,33.53
2022-11-01T00:49:34.671Z,34.05
2022-11-01T00:54:36.253Z,34.55
2022-11-01T00:59:40.919Z,35.35
2022-11-01T01:04:43.332Z,33.60
2022-11-01T01:09:44.868Z,34.45
2022-11-01T01:14:46.547Z,39.20
2022-11-01T01:19:48.095Z,39.67
2022-11-01T01:24:49.739Z,40.10
2022-11-01T01:29:52.100Z,44.22
2022-11-01T01:34:53.958Z,43.50
2022-11-01T01:39:55.625Z,46.35
2022-11-01T01:44:57.181Z,46.03
2022-11-01T01:50:01.287Z,47.85
2022-11-01T01:55:07.384Z,48.83
2022-11-01T02:00:09.601Z,48.77
2022-11-01T02:05:36.300Z,36.87
2022-11-01T02:10:38.451Z,46.58
2022-11-01T02:15:52.635Z,45.22
2022-11-01T02:21:17.693Z,43.70
2022-11-01T02:26:50.012Z,45.22
2022-11-01T02:32:10.318Z,44.58
2022-11-01T02:37:34.703Z,41.65
2022-11-01T02:42:46.457Z,40.13
2022-11-01T02:47:48.005Z,41.28
2022-11-01T02:52:49.735Z,39.95
2022-11-01T02:57:51.447Z,38.25
2022-11-01T03:03:04.437Z,37.47
2022-11-01T03:08:19.299Z,38.40
2022-11-01T03:14:01.067Z,36.95
2022-11-01T03:19:34.158Z,37.33
2022-11-01T03:24:56.622Z,36.05
2022-11-01T03:30:14.118Z,30.63
2022-11-01T03:35:19.511Z,29.27
2022-11-01T03:40:23.208Z,27.08
2022-11-01T03:45:26.712Z,26.65
2022-11-01T03:50:29.221Z,24.15
2022-11-01T03:55:30.804Z,20.88
2022-11-01T04:00:36.376Z,21.42
2022-11-01T04:05:39.634Z,20.98
2022-11-01T04:10:42.064Z,21.25
2022-11-01T04:16:02.073Z,20.77
2022-11-01T04:21:07.926Z,19.23
2022-11-01T04:26:13.101Z,19.73
2022-11-01T04:31:14.704Z,19.98
2022-11-01T04:36:16.343Z,20.08
2022-11-01T04:41:19.434Z,19.10
2022-11-01T04:46:21.540Z,17.65
2022-11-01T04:51:23.179Z,17.33
2022-11-01T04:56:24.947Z,16.52
2022-11-01T05:01:26.985Z,17.30
2022-11-01T05:06:29.619Z,15.75
2022-11-01T05:11:31.165Z,17.08
2022-11-01T05:16:32.695Z,16.17
2022-11-01T05:21:34.298Z,16.88
2022-11-01T05:26:35.871Z,15.43
2022-11-01T05:31:38.072Z,15.90
2022-11-01T05:36:39.754Z,16.30
2022-11-01T05:41:41.440Z,15.98
2022-11-01T05:46:43.093Z,15.45
2022-11-01T05:51:44.615Z,16.23
2022-11-01T05:56:46.211Z,16.17
2022-11-01T06:01:47.926Z,17.20
2022-11-01T06:06:49.592Z,16.95
2022-11-01T06:11:51.278Z,17.52
2022-11-01T06:16:53.095Z,16.08
2022-11-01T06:21:54.590Z,17.67
2022-11-01T06:26:56.172Z,17.55
2022-11-01T06:31:57.735Z,17.08
2022-11-01T06:36:59.994Z,16.38
2022-11-01T06:42:01.572Z,17.10
2022-11-01T06:47:03.343Z,16.83
2022-11-01T06:52:05.382Z,17.42
2022-11-01T06:57:07.172Z,17.98
2022-11-01T07:02:14.309Z,15.40
2022-11-01T07:07:16.606Z,17.92
2022-11-01T07:12:18.549Z,18.48
2022-11-01T07:17:20.290Z,16.35
2022-11-01T07:22:21.922Z,17.38
2022-11-01T07:27:23.514Z,16.80
2022-11-01T07:32:25.136Z,17.13
2022-11-01T07:37:29.548Z,16.98
2022-11-01T07:42:31.133Z,18.55
2022-11-01T07:47:32.778Z,16.60
2022-11-01T07:52:34.385Z,16.52
2022-11-01T07:57:40.505Z,15.25
2022-11-01T08:02:42.115Z,15.73
2022-11-01T08:07:43.680Z,15.85
2022-11-01T08:12:45.262Z,14.95
2022-11-01T08:17:46.938Z,15.27
2022-11-01T08:22:48.551Z,14.32
2022-11-01T08:27:50.260Z,14.75
2022-11-01T08:32:59.029Z,14.48
2022-11-01T08:38:01.357Z,13.98
2022-11-01T08:43:03.335Z,13.95
2022-11-01T08:48:05.838Z,21.55
2022-11-01T08:53:12.410Z,13.00
2022-11-01T08:58:13.934Z,12.25
2022-11-01T09:03:16.067Z,12.65
2022-11-01T09:08:18.407Z,12.80
2022-11-01T09:13:20.590Z,12.90
2022-11-01T09:18:22.366Z,12.57
2022-11-01T09:23:24.002Z,12.05
2022-11-01T09:28:28.823Z,12.02
2022-11-01T09:33:32.259Z,12.27
2022-11-01T09:38:35.549Z,12.63
2022-11-01T09:43:41.081Z,12.50
2022-11-01T09:48:44.227Z,12.73
2022-11-01T09:53:46.577Z,11.77
2022-11-01T09:59:05.759Z,11.55
2022-11-01T10:04:10.194Z,12.43
2022-11-01T10:09:41.121Z,11.88
2022-11-01T10:15:19.914Z,12.35
2022-11-01T10:20:26.559Z,11.95
2022-11-01T10:30:47.736Z,13.65
2022-11-01T10:35:53.607Z,11.88
2022-11-01T10:41:01.530Z,12.33
2022-11-01T10:46:07.387Z,12.73
2022-11-01T10:51:11.318Z,12.63
2022-11-01T10:56:24.560Z,13.05
2022-11-01T11:01:31.862Z,14.52
2022-11-01T11:06:36.176Z,13.88
2022-11-01T11:11:42.189Z,13.20
2022-11-01T11:16:57.224Z,12.38
2022-11-01T11:22:06.484Z,11.68
2022-11-01T11:27:24.060Z,12.73
2022-11-01T11:32:29.020Z,12.07
2022-11-01T11:37:34.737Z,11.10
2022-11-01T11:42:36.362Z,11.40
2022-11-01T11:47:38.379Z,11.57
2022-11-01T11:52:40.693Z,11.68
2022-11-01T11:57:51.977Z,10.95
2022-11-01T12:02:53.845Z,10.80
2022-11-01T12:07:57.000Z,10.27
2022-11-01T12:12:58.723Z,9.10
2022-11-01T12:18:15.978Z,7.80
2022-11-01T12:23:39.494Z,4.05
2022-11-01T12:29:08.050Z,2.78
2022-11-01T12:34:19.036Z,2.58
2022-11-01T12:39:41.763Z,2.53
2022-11-01T12:45:10.619Z,2.00
2022-11-01T12:50:21.782Z,4.10
2022-11-01T12:55:45.349Z,2.33
2022-11-01T13:01:07.395Z,2.08
2022-11-01T13:06:22.771Z,2.40
2022-11-01T13:11:42.781Z,2.00
2022-11-01T13:16:51.548Z,1.85
2022-11-01T13:22:03.650Z,2.13
2022-11-01T13:27:09.801Z,1.98
2022-11-01T13:32:35.820Z,2.03
2022-11-01T13:37:43.751Z,2.65
2022-11-01T13:43:05.135Z,3.10
2022-11-01T13:48:34.763Z,2.70
2022-11-01T13:53:49.576Z,2.28
2022-11-01T13:58:51.344Z,2.47
2022-11-01T14:04:11.305Z,1.98
2022-11-01T14:09:27.857Z,1.83
2022-11-01T14:14:29.394Z,2.00
2022-11-01T14:19:31.112Z,3.15
2022-11-01T14:24:35.514Z,2.20
2022-11-01T14:29:37.455Z,1.75
2022-11-01T14:34:41.604Z,2.03
2022-11-01T14:40:01.016Z,2.63
2022-11-01T14:45:10.748Z,2.20
2022-11-01T14:50:22.448Z,2.63
2022-11-01T14:55:32.051Z,2.10
2022-11-01T15:00:33.795Z,2.78
2022-11-01T15:05:44.030Z,1.73
2022-11-01T15:10:45.720Z,1.98
2022-11-01T15:16:03.818Z,2.08
2022-11-01T15:21:10.568Z,2.28
2022-11-01T15:26:13.167Z,3.05
2022-11-01T15:31:15.013Z,3.85
2022-11-01T15:36:23.402Z,3.35
2022-11-01T15:41:30.871Z,2.20
2022-11-01T15:46:37.440Z,3.17
2022-11-01T15:56:52.885Z,2.95
2022-11-01T16:01:57.578Z,2.90
2022-11-01T16:07:06.617Z,2.92
2022-11-01T16:12:20.792Z,3.08
2022-11-01T16:17:34.955Z,3.00
2022-11-01T16:22:42.561Z,7.63
2022-11-01T16:28:04.536Z,18.83
2022-11-01T16:33:30.834Z,21.13
2022-11-01T16:38:38.561Z,23.58
2022-11-01T16:43:40.225Z,23.58
2022-11-01T16:48:59.763Z,22.55
2022-11-01T16:54:01.448Z,23.20
2022-11-01T16:59:37.769Z,26.13
2022-11-01T17:04:40.790Z,26.00
2022-11-01T17:09:42.476Z,25.20
2022-11-01T17:14:44.831Z,27.67
2022-11-01T17:19:52.910Z,27.05
2022-11-01T17:24:55.845Z,27.83
2022-11-01T17:29:57.485Z,26.67
2022-11-01T17:34:59.107Z,26.25
2022-11-01T17:40:01.196Z,26.65
2022-11-01T17:45:02.888Z,26.85
2022-11-01T17:50:05.085Z,29.67
2022-11-01T17:55:08.763Z,28.50
2022-11-01T18:00:11.405Z,28.02
2022-11-01T18:05:16.798Z,29.10
2022-11-01T18:10:45.252Z,27.92
2022-11-01T18:16:08.036Z,30.10
2022-11-01T18:21:22.097Z,27.08
2022-11-01T18:26:26.059Z,27.88
2022-11-01T18:31:34.124Z,28.35
2022-11-01T18:36:53.619Z,26.30
2022-11-01T18:41:55.264Z,31.15
2022-11-01T18:47:04.667Z,28.90
2022-11-01T18:52:14.279Z,29.52
2022-11-01T18:57:17.472Z,32.97
2022-11-01T19:02:28.117Z,32.50
2022-11-01T19:07:44.604Z,30.88
2022-11-01T19:12:56.203Z,33.65
2022-11-01T19:18:02.819Z,34.13
2022-11-01T19:23:18.752Z,35.25
2022-11-01T19:28:30.731Z,34.40
2022-11-01T19:33:37.472Z,33.22
2022-11-01T19:38:43.390Z,35.28
2022-11-01T19:43:45.086Z,35.10
2022-11-01T19:48:47.810Z,37.60
2022-11-01T19:53:51.424Z,36.40
2022-11-01T19:59:00.618Z,35.95
2022-11-01T20:04:29.743Z,36.35
2022-11-01T20:09:35.855Z,36.55
2022-11-01T20:14:38.001Z,35.20
2022-11-01T20:19:39.858Z,36.83
2022-11-01T20:24:41.419Z,37.60
2022-11-01T20:29:43.041Z,37.75
2022-11-01T20:34:44.605Z,37.45
2022-11-01T20:39:46.249Z,36.03
2022-11-01T20:44:47.879Z,38.80
2022-11-01T20:49:49.596Z,37.50
2022-11-01T20:54:51.613Z,38.83
2022-11-01T20:59:53.433Z,37.42
2022-11-01T21:05:05.736Z,36.33
2022-11-01T21:10:31.800Z,37.35
2022-11-01T21:15:39.057Z,35.77
2022-11-01T21:20:49.133Z,41.70
2022-11-01T21:25:53.486Z,43.20
2022-11-01T21:31:01.193Z,41.65
2022-11-01T21:36:21.366Z,38.20
2022-11-01T21:41:26.902Z,36.75
2022-11-01T21:46:34.834Z,38.90
2022-11-01T21:51:36.422Z,36.30
2022-11-01T21:56:37.941Z,36.75
2022-11-01T22:01:42.791Z,36.88
2022-11-01T22:06:45.632Z,29.83
2022-11-01T22:11:47.388Z,24.92
2022-11-01T22:16:48.921Z,17.83
2022-11-01T22:21:50.455Z,9.85
2022-11-01T22:26:52.079Z,5.80
2022-11-01T22:32:01.083Z,4.88
2022-11-01T22:37:12.498Z,4.00
2022-11-01T22:42:15.517Z,3.75
2022-11-01T22:47:22.643Z,3.00
2022-11-01T22:52:43.286Z,2.75
2022-11-01T22:57:49.275Z,1.70
2022-11-01T23:02:51.156Z,1.98
2022-11-01T23:07:55.863Z,2.75
2022-11-01T23:13:28.337Z,5.95
2022-11-01T23:18:33.135Z,18.33
2022-11-01T23:23:41.823Z,16.08
2022-11-01T23:28:46.391Z,12.70
2022-11-01T23:33:49.263Z,9.70
2022-11-01T23:44:35.936Z,11.95
2022-11-01T23:49:37.544Z,10.32
2022-11-01T23:54:42.934Z,9.15
2022-11-01T23:59:44.494Z,9.00
